createdAt,value
2023-02-22T00:02:42.123Z,55.72
2023-02-22T00:05:17.226Z,55.89
2023-02-22T00:07:45.119Z,55.89
2023-02-22T00:10:23.081Z,56.40
2023-02-22T00:13:00.389Z,56.07
2023-02-22T00:15:30.265Z,55.72
2023-02-22T00:18:00.319Z,56.25
2023-02-22T00:20:30.936Z,56.21
2023-02-22T00:23:02.098Z,56.09
2023-02-22T00:25:36.104Z,56.12
2023-02-22T00:28:05.306Z,55.99
2023-02-22T00:30:34.225Z,56.02
2023-02-22T00:33:02.397Z,55.39
2023-02-22T00:35:34.157Z,55.65
2023-02-22T00:38:04.579Z,56.27
2023-02-22T00:40:36.266Z,56.09
2023-02-22T00:43:07.861Z,56.00
2023-02-22T00:45:37.088Z,56.26
2023-02-22T00:48:06.931Z,56.05
2023-02-22T00:50:35.165Z,56.05
2023-02-22T00:53:08.408Z,56.21
2023-02-22T00:55:41.409Z,56.39
2023-02-22T00:58:16.810Z,56.41
2023-02-22T01:00:48.038Z,56.33
2023-02-22T01:03:18.808Z,56.14
2023-02-22T01:05:50.627Z,55.84
2023-02-22T01:08:33.152Z,56.31
2023-02-22T01:11:00.522Z,56.15
2023-02-22T01:13:50.918Z,55.65
2023-02-22T01:16:33.772Z,55.44
2023-02-22T01:19:14.729Z,55.72
2023-02-22T01:21:45.538Z,55.54
2023-02-22T01:24:34.057Z,55.88
2023-02-22T01:27:04.993Z,55.74
2023-02-22T01:29:49.329Z,55.68
2023-02-22T01:32:21.094Z,55.72
2023-02-22T01:34:49.838Z,55.33
2023-02-22T01:37:27.795Z,55.06
2023-02-22T01:40:10.153Z,55.16
2023-02-22T01:42:41.309Z,55.24
2023-02-22T01:45:30.682Z,55.30
2023-02-22T01:48:22.606Z,54.73
2023-02-22T01:51:13.038Z,55.25
2023-02-22T01:54:09.639Z,55.02
2023-02-22T01:56:40.816Z,54.70
2023-02-22T02:02:25.447Z,54.65
2023-02-22T02:04:56.690Z,54.50
2023-02-22T02:07:25.076Z,54.38
2023-02-22T02:10:00.455Z,54.69
2023-02-22T02:12:34.594Z,54.76
2023-02-22T02:15:18.618Z,54.79
2023-02-22T02:17:47.682Z,54.24
2023-02-22T02:20:24.304Z,54.66
2023-02-22T02:23:30.044Z,54.69
2023-02-22T02:26:15.413Z,54.38
2023-02-22T02:28:42.757Z,53.99
2023-02-22T02:31:37.196Z,54.29
2023-02-22T02:34:33.376Z,54.39
2023-02-22T02:37:11.986Z,53.87
2023-02-22T02:39:53.846Z,54.11
2023-02-22T02:42:28.189Z,53.76
2023-02-22T02:45:10.278Z,53.96
2023-02-22T02:47:55.964Z,53.78
2023-02-22T02:50:46.453Z,53.79
2023-02-22T02:53:17.392Z,53.70
2023-02-22T02:55:50.234Z,53.88
2023-02-22T02:58:23.552Z,53.50
2023-02-22T03:00:57.497Z,53.54
2023-02-22T03:03:40.908Z,53.84
2023-02-22T03:06:33.164Z,53.78
2023-02-22T03:09:43.782Z,53.73
2023-02-22T03:12:32.829Z,53.81
2023-02-22T03:15:47.238Z,53.73
2023-02-22T03:18:33.611Z,53.93
2023-02-22T03:21:24.224Z,53.78
2023-02-22T03:24:27.185Z,53.78
2023-02-22T03:27:06.294Z,53.85
2023-02-22T03:29:44.742Z,53.57
2023-02-22T03:32:20.746Z,53.65
2023-02-22T03:34:57.097Z,53.75
2023-02-22T03:37:34.259Z,53.25
2023-02-22T03:40:14.626Z,53.06
2023-02-22T03:42:55.269Z,53.19
2023-02-22T03:45:29.167Z,53.37
2023-02-22T03:48:14.717Z,53.03
2023-02-22T03:50:49.302Z,53.16
2023-02-22T03:53:26.292Z,53.30
2023-02-22T03:55:59.429Z,53.46
2023-02-22T03:58:33.192Z,53.65
2023-02-22T04:01:00.587Z,53.49
2023-02-22T04:03:29.068Z,53.58
2023-02-22T04:05:56.405Z,53.60
2023-02-22T04:08:24.682Z,54.28
2023-02-22T04:10:52.097Z,53.73
2023-02-22T04:13:22.684Z,53.14
2023-02-22T04:15:54.257Z,53.67
2023-02-22T04:18:26.940Z,53.76
2023-02-22T04:20:57.016Z,53.62
2023-02-22T04:23:44.467Z,53.56
2023-02-22T04:26:12.568Z,53.87
2023-02-22T04:28:40.350Z,53.75
2023-02-22T04:31:17.631Z,53.51
2023-02-22T04:33:45.446Z,53.73
2023-02-22T04:36:16.784Z,53.59
2023-02-22T04:38:47.401Z,53.71
2023-02-22T04:41:15.028Z,53.51
2023-02-22T04:43:42.547Z,53.34
2023-02-22T04:46:19.415Z,53.32
2023-02-22T04:48:46.705Z,53.75
2023-02-22T04:51:16.443Z,53.88
2023-02-22T04:54:04.360Z,53.69
2023-02-22T04:56:47.125Z,54.09
2023-02-22T04:59:19.764Z,53.62
2023-02-22T05:01:54.214Z,53.71
2023-02-22T05:04:23.756Z,53.56
2023-02-22T05:06:56.749Z,53.92
2023-02-22T05:09:37.066Z,54.22
2023-02-22T05:12:04.924Z,53.94
2023-02-22T05:14:32.178Z,53.70
2023-02-22T05:16:59.786Z,54.15
2023-02-22T05:19:27.160Z,53.79
2023-02-22T05:22:06.523Z,54.04
2023-02-22T05:24:38.307Z,54.14
2023-02-22T05:27:07.996Z,54.05
2023-02-22T05:29:41.945Z,53.86
2023-02-22T05:32:09.276Z,54.19
2023-02-22T05:34:51.684Z,54.22
2023-02-22T05:37:28.872Z,54.58
2023-02-22T05:40:01.822Z,54.20
2023-02-22T05:42:29.158Z,54.39
2023-02-22T05:45:10.761Z,54.55
2023-02-22T05:47:49.580Z,54.57
2023-02-22T05:53:09.207Z,54.07
2023-02-22T05:55:42.346Z,54.28
2023-02-22T05:58:12.892Z,54.40
2023-02-22T06:00:47.135Z,54.39
2023-02-22T06:03:39.559Z,54.76
2023-02-22T06:06:15.683Z,54.35
2023-02-22T06:08:46.515Z,54.32
2023-02-22T06:11:17.238Z,54.37
2023-02-22T06:13:54.107Z,54.82
2023-02-22T06:16:27.774Z,54.72
2023-02-22T06:18:57.721Z,55.25
2023-02-22T06:21:28.169Z,55.45
2023-02-22T06:24:02.861Z,55.01
2023-02-22T06:26:55.753Z,55.09
2023-02-22T06:29:24.572Z,54.99
2023-02-22T06:31:52.299Z,55.05
2023-02-22T06:34:28.369Z,55.28
2023-02-22T06:37:00.856Z,55.73
2023-02-22T06:39:35.449Z,55.35
2023-02-22T06:42:10.460Z,55.25
2023-02-22T06:44:37.643Z,55.28
2023-02-22T06:47:10.601Z,55.08
2023-02-22T06:49:37.854Z,54.84
2023-02-22T06:52:07.018Z,54.99
2023-02-22T06:54:40.019Z,55.09
2023-02-22T06:57:10.413Z,55.09
2023-02-22T06:59:43.109Z,54.84
2023-02-22T07:02:24.022Z,54.95
2023-02-22T07:05:03.374Z,55.00
2023-02-22T07:07:30.614Z,54.80
2023-02-22T07:12:43.221Z,54.91
2023-02-22T07:15:26.060Z,54.96
2023-02-22T07:18:11.482Z,55.25
2023-02-22T07:20:44.559Z,54.99
2023-02-22T07:23:23.295Z,55.04
2023-02-22T07:28:43.589Z,54.75
2023-02-22T07:31:11.851Z,54.98
2023-02-22T07:33:41.941Z,54.33
2023-02-22T07:36:13.977Z,54.06
2023-02-22T07:38:41.286Z,54.04
2023-02-22T07:41:11.706Z,54.58
2023-02-22T07:43:48.503Z,54.15
2023-02-22T07:46:41.972Z,53.87
2023-02-22T07:49:15.155Z,53.70
2023-02-22T07:51:42.737Z,53.64
2023-02-22T07:54:10.299Z,53.28
2023-02-22T07:56:48.430Z,53.51
2023-02-22T07:59:20.189Z,53.29
2023-02-22T08:02:09.839Z,53.22
2023-02-22T08:04:37.689Z,53.28
2023-02-22T08:07:06.401Z,52.93
2023-02-22T08:09:39.552Z,52.56
2023-02-22T08:12:11.830Z,52.40
2023-02-22T08:14:39.953Z,52.52
2023-02-22T08:17:09.007Z,52.07
2023-02-22T08:19:37.342Z,51.74
2023-02-22T08:22:04.860Z,51.77
2023-02-22T08:27:14.843Z,51.39
2023-02-22T08:29:42.274Z,50.70
2023-02-22T08:32:11.444Z,50.61
2023-02-22T08:34:38.727Z,50.35
2023-02-22T08:37:06.062Z,50.10
2023-02-22T08:39:45.126Z,49.69
2023-02-22T08:42:19.211Z,49.53
2023-02-22T08:44:50.199Z,48.98
2023-02-22T08:47:28.269Z,48.88
2023-02-22T08:50:01.626Z,48.14
2023-02-22T08:52:37.002Z,48.04
2023-02-22T08:55:11.037Z,46.74
2023-02-22T08:57:48.308Z,47.08
2023-02-22T09:00:40.452Z,46.22
2023-02-22T09:03:23.016Z,46.14
2023-02-22T09:05:59.204Z,46.10
2023-02-22T09:08:34.539Z,45.43
2023-02-22T09:13:53.712Z,45.15
2023-02-22T09:16:26.111Z,44.49
2023-02-22T09:19:04.273Z,44.36
2023-02-22T09:21:42.857Z,43.77
2023-02-22T09:24:23.666Z,43.49
2023-02-22T09:27:03.945Z,43.34
2023-02-22T09:29:42.818Z,42.41
2023-02-22T09:32:47.131Z,41.91
2023-02-22T09:35:23.123Z,41.63
2023-02-22T09:38:08.530Z,41.53
2023-02-22T09:41:01.215Z,41.03
2023-02-22T09:44:13.691Z,40.62
2023-02-22T09:46:57.424Z,39.93
2023-02-22T09:53:28.837Z,39.49
2023-02-22T09:56:26.764Z,39.56
2023-02-22T09:59:04.102Z,39.30
2023-02-22T10:01:43.677Z,39.64
2023-02-22T10:07:29.055Z,40.91
2023-02-22T10:10:15.275Z,42.06
2023-02-22T10:13:22.334Z,42.51
2023-02-22T10:16:07.562Z,42.51
2023-02-22T10:19:14.410Z,43.87
2023-02-22T10:22:32.974Z,43.88
2023-02-22T10:25:24.825Z,43.82
2023-02-22T10:28:21.298Z,42.98
2023-02-22T10:31:08.583Z,43.30
2023-02-22T10:33:55.809Z,43.69
2023-02-22T10:36:48.424Z,44.10
2023-02-22T10:39:36.924Z,43.85
2023-02-22T10:42:34.244Z,43.95
2023-02-22T10:45:34.776Z,44.23
2023-02-22T10:48:18.781Z,43.83
2023-02-22T10:56:57.272Z,43.83
2023-02-22T10:59:36.462Z,43.47
2023-02-22T11:02:15.711Z,42.74
2023-02-22T11:05:07.019Z,41.43
2023-02-22T11:07:48.727Z,41.01
2023-02-22T11:10:51.304Z,39.76
2023-02-22T11:13:45.284Z,39.42
2023-02-22T11:16:36.875Z,39.16
2023-02-22T11:19:26.793Z,39.40
2023-02-22T11:22:19.859Z,38.79
2023-02-22T11:25:07.737Z,38.43
2023-02-22T11:28:03.267Z,38.96
2023-02-22T11:30:36.409Z,39.08
2023-02-22T11:33:33.684Z,38.53
2023-02-22T11:36:11.384Z,38.21
2023-02-22T11:39:00.543Z,38.49
2023-02-22T11:41:36.162Z,38.39
2023-02-22T11:44:32.844Z,37.54
2023-02-22T11:47:07.454Z,37.29
2023-02-22T11:53:13.547Z,35.58
2023-02-22T11:56:40.730Z,36.14
2023-02-22T11:59:34.858Z,35.36
2023-02-22T12:03:01.133Z,34.88
2023-02-22T12:05:37.409Z,34.52
2023-02-22T12:08:54.063Z,34.04
2023-02-22T12:11:43.516Z,34.08
2023-02-22T12:14:39.220Z,33.87
2023-02-22T12:17:21.910Z,33.98
2023-02-22T12:23:27.473Z,33.81
2023-02-22T12:26:11.717Z,34.58
2023-02-22T12:29:09.270Z,34.22
2023-02-22T12:31:38.836Z,33.13
2023-02-22T12:34:40.269Z,34.17
2023-02-22T12:37:19.360Z,33.52
2023-02-22T12:40:27.946Z,33.31
2023-02-22T12:43:34.630Z,33.41
2023-02-22T12:46:21.667Z,33.56
2023-02-22T12:49:38.514Z,33.09
2023-02-22T12:52:50.886Z,32.90
2023-02-22T12:59:04.195Z,32.80
2023-02-22T13:01:51.216Z,33.48
2023-02-22T13:04:21.306Z,33.38
2023-02-22T13:07:27.628Z,32.99
2023-02-22T13:10:31.389Z,33.65
2023-02-22T13:13:39.663Z,33.08
2023-02-22T13:16:25.508Z,33.61
2023-02-22T13:19:17.795Z,32.73
2023-02-22T13:22:06.812Z,32.24
2023-02-22T13:24:57.226Z,32.34
2023-02-22T13:27:37.628Z,33.22
2023-02-22T13:30:36.097Z,33.09
2023-02-22T13:36:33.820Z,33.36
2023-02-22T13:39:36.352Z,33.50
2023-02-22T13:42:43.932Z,33.28
2023-02-22T13:45:34.373Z,33.51
2023-02-22T13:48:37.618Z,33.52
2023-02-22T13:51:54.267Z,33.43
2023-02-22T13:54:56.883Z,33.59
2023-02-22T13:58:07.266Z,33.79
2023-02-22T14:00:54.374Z,34.03
2023-02-22T14:03:44.328Z,34.38
2023-02-22T14:06:45.658Z,34.35
2023-02-22T14:09:54.929Z,33.85
2023-02-22T14:15:29.952Z,34.08
2023-02-22T14:18:21.737Z,34.55
2023-02-22T14:21:26.784Z,34.00
2023-02-22T14:24:26.119Z,34.69
2023-02-22T14:27:18.672Z,35.51
2023-02-22T14:30:03.138Z,35.13
2023-02-22T14:32:42.294Z,35.00
2023-02-22T14:35:27.418Z,35.19
2023-02-22T14:38:08.075Z,35.09
2023-02-22T14:46:45.190Z,34.33
2023-02-22T14:49:26.423Z,35.22
2023-02-22T14:52:14.441Z,34.95
2023-02-22T14:55:55.778Z,35.13
2023-02-22T14:58:38.519Z,36.00
2023-02-22T15:01:55.215Z,37.34
2023-02-22T15:04:35.590Z,36.23
2023-02-22T15:07:37.265Z,36.70
2023-02-22T15:10:30.810Z,36.48
2023-02-22T15:16:08.197Z,37.51
2023-02-22T15:18:50.818Z,37.36
2023-02-22T15:21:31.934Z,38.48
2023-02-22T15:27:03.050Z,38.82
2023-02-22T15:29:52.675Z,39.45
2023-02-22T15:33:02.613Z,39.17
2023-02-22T15:35:58.208Z,39.95
2023-02-22T15:38:43.743Z,40.72
2023-02-22T15:41:28.171Z,41.46
2023-02-22T15:44:22.756Z,40.68
2023-02-22T15:47:01.430Z,42.96
2023-02-22T15:49:48.467Z,42.33
2023-02-22T15:52:42.111Z,43.01
2023-02-22T15:55:31.501Z,43.69
2023-02-22T15:58:36.651Z,43.04
2023-02-22T16:01:19.230Z,42.93
2023-02-22T16:03:56.891Z,43.25
2023-02-22T16:06:39.038Z,45.34
2023-02-22T16:09:36.405Z,44.71
2023-02-22T16:12:24.309Z,46.02
2023-02-22T16:14:54.739Z,45.61
2023-02-22T16:17:56.099Z,45.60
2023-02-22T16:20:36.412Z,45.95
2023-02-22T16:23:36.380Z,47.01
2023-02-22T16:26:33.521Z,46.71
2023-02-22T16:31:55.316Z,47.71
2023-02-22T16:34:26.076Z,46.41
2023-02-22T16:36:59.378Z,46.94
2023-02-22T16:39:40.840Z,47.59
2023-02-22T16:45:15.794Z,46.88
2023-02-22T16:47:59.997Z,47.68
2023-02-22T16:50:33.244Z,47.28
2023-02-22T16:53:11.304Z,47.69
2023-02-22T16:55:38.834Z,47.93
2023-02-22T16:58:25.438Z,47.50
2023-02-22T17:01:01.291Z,48.68
2023-02-22T17:03:29.788Z,48.22
2023-02-22T17:06:02.692Z,48.52
2023-02-22T17:08:52.528Z,48.96
2023-02-22T17:11:38.172Z,48.61
2023-02-22T17:17:06.936Z,49.00
2023-02-22T17:19:51.296Z,49.19
2023-02-22T17:22:27.511Z,49.33
2023-02-22T17:25:10.279Z,49.30
2023-02-22T17:27:46.539Z,49.12
2023-02-22T17:30:26.460Z,50.12
2023-02-22T17:33:03.888Z,49.72
2023-02-22T17:35:49.572Z,49.96
2023-02-22T17:38:28.188Z,50.18
2023-02-22T17:41:06.842Z,50.58
2023-02-22T17:43:47.484Z,49.72
2023-02-22T17:46:21.094Z,49.78
2023-02-22T17:55:02.436Z,50.17
2023-02-22T17:57:47.445Z,50.72
2023-02-22T18:00:35.595Z,50.86
2023-02-22T18:03:19.799Z,50.54
2023-02-22T18:06:37.202Z,50.50
2023-02-22T18:12:13.757Z,50.41
2023-02-22T18:14:53.450Z,50.71
2023-02-22T18:17:23.783Z,50.57
2023-02-22T18:19:56.530Z,50.88
2023-02-22T18:22:35.128Z,50.81
2023-02-22T18:25:16.913Z,51.32
2023-02-22T18:27:57.184Z,51.36
2023-02-22T18:30:24.985Z,50.79
2023-02-22T18:33:01.016Z,51.12
2023-02-22T18:35:37.493Z,50.51
2023-02-22T18:38:14.896Z,50.91
2023-02-22T18:40:55.429Z,50.63
2023-02-22T18:46:25.206Z,50.44
2023-02-22T18:49:08.074Z,50.43
2023-02-22T18:51:40.422Z,50.46
2023-02-22T18:54:18.567Z,50.08
2023-02-22T18:56:55.168Z,50.00
2023-02-22T18:59:26.044Z,50.08
2023-02-22T19:02:09.040Z,50.36
2023-02-22T19:04:44.523Z,50.53
2023-02-22T19:07:29.145Z,50.05
2023-02-22T19:10:07.319Z,50.01
2023-02-22T19:12:43.982Z,50.82
2023-02-22T19:15:13.277Z,50.72
2023-02-22T19:17:46.379Z,50.78
2023-02-22T19:20:13.842Z,50.77
2023-02-22T19:22:48.220Z,51.08
2023-02-22T19:25:18.479Z,50.99
2023-02-22T19:27:51.665Z,50.69
2023-02-22T19:30:21.949Z,50.66
2023-02-22T19:32:54.862Z,50.91
2023-02-22T19:35:33.331Z,50.65
2023-02-22T19:38:00.813Z,50.86
2023-02-22T19:40:32.736Z,51.02
2023-02-22T19:43:14.701Z,51.06
2023-02-22T19:45:55.122Z,51.67
2023-02-22T19:48:26.002Z,50.99
2023-02-22T19:51:02.557Z,50.90
2023-02-22T19:53:34.478Z,51.15
2023-02-22T19:56:17.534Z,51.32
2023-02-22T19:58:48.652Z,51.03
2023-02-22T20:01:28.706Z,51.39
2023-02-22T20:04:13.630Z,51.46
2023-02-22T20:07:07.327Z,51.47
2023-02-22T20:09:44.638Z,51.33
2023-02-22T20:12:37.397Z,51.66
2023-02-22T20:15:22.470Z,51.56
2023-02-22T20:17:58.477Z,51.48
2023-02-22T20:20:54.199Z,51.24
2023-02-22T20:23:40.511Z,51.70
2023-02-22T20:26:27.410Z,51.62
2023-02-22T20:29:01.288Z,51.41
2023-02-22T20:31:57.173Z,52.13
2023-02-22T20:34:44.914Z,51.85
2023-02-22T20:37:16.930Z,51.92
2023-02-22T20:39:54.331Z,51.86
2023-02-22T20:42:22.758Z,51.83
2023-02-22T20:45:00.196Z,51.73
2023-02-22T20:47:39.318Z,51.87
2023-02-22T20:50:14.993Z,52.12
2023-02-22T20:52:48.901Z,51.75
2023-02-22T20:55:25.313Z,52.30
2023-02-22T20:57:57.681Z,52.15
2023-02-22T21:00:28.942Z,51.84
2023-02-22T21:05:46.804Z,51.91
2023-02-22T21:08:17.777Z,51.79
2023-02-22T21:10:52.363Z,52.24
2023-02-22T21:13:30.989Z,51.93
2023-02-22T21:16:02.624Z,51.67
2023-02-22T21:18:33.730Z,52.01
2023-02-22T21:21:19.148Z,52.21
2023-02-22T21:23:55.169Z,51.96
2023-02-22T21:26:27.377Z,52.02
2023-02-22T21:29:09.483Z,51.93
2023-02-22T21:31:37.593Z,51.58
2023-02-22T21:34:07.995Z,51.71
2023-02-22T21:36:39.142Z,51.63
2023-02-22T21:39:20.918Z,51.59
2023-02-22T21:41:59.888Z,51.66
2023-02-22T21:44:30.542Z,51.91
2023-02-22T21:49:42.550Z,51.60
2023-02-22T21:52:12.789Z,51.47
2023-02-22T21:54:43.573Z,51.78
2023-02-22T21:57:15.102Z,51.69
2023-02-22T21:59:51.424Z,51.95
2023-02-22T22:02:40.291Z,52.10
2023-02-22T22:08:07.534Z,51.77
2023-02-22T22:10:40.181Z,51.71
2023-02-22T22:13:20.646Z,52.02
2023-02-22T22:16:34.575Z,51.77
2023-02-22T22:19:33.900Z,51.82
2023-02-22T22:22:08.473Z,51.62
2023-02-22T22:24:44.643Z,51.79
2023-02-22T22:27:15.204Z,51.45
2023-02-22T22:29:50.906Z,51.87
2023-02-22T22:32:44.907Z,51.77
2023-02-22T22:35:18.207Z,52.07
2023-02-22T22:37:56.995Z,51.73
2023-02-22T22:40:26.091Z,51.64
2023-02-22T22:42:53.655Z,51.70
2023-02-22T22:45:31.508Z,51.72
2023-02-22T22:48:09.923Z,51.93
2023-02-22T22:50:41.811Z,51.78
2023-02-22T22:55:53.237Z,51.82
2023-02-22T22:58:28.786Z,51.90
2023-02-22T23:01:02.836Z,51.68
2023-02-22T23:03:43.667Z,52.06
2023-02-22T23:06:15.811Z,51.83
2023-02-22T23:08:45.782Z,51.71
2023-02-22T23:11:13.567Z,52.08
2023-02-22T23:13:44.012Z,52.06
2023-02-22T23:21:45.360Z,52.14
2023-02-22T23:24:23.671Z,52.23
2023-02-22T23:27:17.529Z,52.42
2023-02-22T23:29:49.865Z,52.13
2023-02-22T23:32:24.967Z,52.33
2023-02-22T23:35:13.135Z,52.38
2023-02-22T23:38:17.867Z,52.80
2023-02-22T23:41:07.689Z,52.55
2023-02-22T23:43:44.644Z,52.46
2023-02-22T23:46:33.387Z,52.44
2023-02-22T23:49:02.639Z,52.28
2023-02-22T23:51:39.671Z,52.52
2023-02-22T23:54:12.680Z,52.49
2023-02-22T23:56:56.009Z,52.30
2023-02-22T23:59:32.823Z,52.28
